Time;durP1;ratioP1;P1;durP2;ratioP2;P2;SDS_P1;SDS_P2;PMS_P1;PMS_P2;Temp;Humidity;BMP_temperature;BMP_pressure;BME280_temperature;BME280_humidity;BME280_pressure;Samples;Min_cycle;Max_cycle;Signal;HPM_P1;HPM_P2
2021/09/29 00:02:14;;;;;;;29.60;18.97;;;13.30;99.90;;;;;;5099254;28;20586;-82
2021/09/29 00:04:40;;;;;;;26.77;18.57;;;13.30;99.90;;;;;;5098481;28;20211;-82
2021/09/29 00:07:06;;;;;;;25.23;18.20;;;13.30;99.90;;;;;;5099487;28;20221;-83
2021/09/29 00:09:32;;;;;;;25.97;17.03;;;13.30;99.90;;;;;;5100513;28;20183;-82
2021/09/29 00:11:57;;;;;;;27.77;17.40;;;13.30;99.90;;;;;;5098848;28;20637;-82
2021/09/29 00:14:23;;;;;;;28.47;16.67;;;13.30;99.90;;;;;;5098928;28;20184;-82
2021/09/29 00:16:49;;;;;;;24.63;16.90;;;13.40;99.90;;;;;;5098964;28;20215;-82
2021/09/29 00:19:14;;;;;;;26.70;17.23;;;13.30;99.90;;;;;;5100671;28;20260;-82
2021/09/29 00:21:40;;;;;;;25.27;16.90;;;13.30;99.90;;;;;;5099236;28;20233;-82
2021/09/29 00:24:06;;;;;;;24.50;17.03;;;13.30;99.90;;;;;;5101541;28;20231;-82
2021/09/29 00:26:32;;;;;;;22.57;16.17;;;13.40;99.90;;;;;;5100318;28;20180;-82
2021/09/29 00:28:57;;;;;;;26.33;16.77;;;13.40;99.90;;;;;;5100298;28;20282;-82
2021/09/29 00:31:27;;;;;;;21.20;15.40;;;13.40;99.90;;;;;;5098850;28;20325;-82
2021/09/29 00:34:24;;;;;;;27.60;16.27;;;13.40;99.90;;;;;;5099848;28;20541;-82
2021/09/29 00:36:43;;;;;;;21.37;14.77;;;13.40;99.90;;;;;;5099037;28;20624;-82
2021/09/29 00:39:10;;;;;;;22.77;14.67;;;13.40;99.90;;;;;;5098798;28;20229;-83
2021/09/29 00:41:36;;;;;;;22.50;15.60;;;13.40;99.90;;;;;;5098026;28;20176;-82
2021/09/29 00:44:03;;;;;;;19.67;14.60;;;13.30;99.90;;;;;;5098583;28;20200;-82
2021/09/29 00:46:29;;;;;;;21.03;14.83;;;13.30;99.90;;;;;;5098470;28;20179;-82
2021/09/29 00:48:54;;;;;;;21.17;14.00;;;13.30;99.90;;;;;;5098210;28;20263;-82
2021/09/29 00:51:20;;;;;;;22.77;15.60;;;13.30;99.90;;;;;;5099439;28;20172;-82
2021/09/29 00:53:48;;;;;;;23.20;15.73;;;13.30;99.90;;;;;;5097787;28;20211;-82
2021/09/29 00:56:15;;;;;;;20.80;14.77;;;13.30;99.90;;;;;;5098144;28;20208;-82
2021/09/29 00:58:41;;;;;;;22.40;14.73;;;13.30;99.90;;;;;;5100013;28;20222;-82
2021/09/29 01:01:06;;;;;;;21.87;15.70;;;13.30;99.90;;;;;;5100180;28;20172;-82
2021/09/29 01:03:32;;;;;;;22.37;15.33;;;13.20;99.90;;;;;;5098499;28;20178;-83
2021/09/29 01:06:12;;;;;;;23.13;15.73;;;13.20;99.90;;;;;;5100539;28;20545;-82
2021/09/29 01:08:48;;;;;;;21.17;15.47;;;13.20;99.90;;;;;;5102322;28;20183;-82
2021/09/29 01:11:31;;;;;;;25.23;15.33;;;13.20;99.90;;;;;;5101498;28;20175;-83
2021/09/29 01:14:14;;;;;;;24.30;16.63;;;13.10;99.90;;;;;;5101000;28;20539;-82
2021/09/29 01:16:42;;;;;;;20.70;14.40;;;13.10;99.90;;;;;;5097527;28;20242;-82
2021/09/29 01:19:41;;;;;;;21.43;14.93;;;13.10;99.90;;;;;;5099075;28;20530;-82
2021/09/29 01:22:16;;;;;;;20.10;14.00;;;13.10;99.90;;;;;;5097215;28;20172;-82
2021/09/29 01:24:55;;;;;;;21.63;14.17;;;13.10;99.90;;;;;;5097499;28;20176;-83
2021/09/29 01:27:23;;;;;;;19.73;14.17;;;13.10;99.90;;;;;;5099351;28;20210;-82
2021/09/29 01:29:51;;;;;;;20.00;14.30;;;13.10;99.90;;;;;;5098060;28;20274;-83
2021/09/29 01:32:21;;;;;;;18.97;14.40;;;13.10;99.90;;;;;;5107208;28;20191;-82
2021/09/29 01:34:49;;;;;;;20.20;14.03;;;13.10;99.90;;;;;;5113936;28;20172;-82
2021/09/29 01:37:15;;;;;;;22.77;12.77;;;13.10;99.90;;;;;;5112599;28;20673;-81
2021/09/29 01:39:41;;;;;;;18.30;12.63;;;13.10;99.90;;;;;;5098139;28;20180;-82
2021/09/29 01:42:07;;;;;;;16.00;11.63;;;13.10;99.90;;;;;;5096751;28;20190;-82
2021/09/29 01:44:33;;;;;;;14.37;11.03;;;13.10;99.90;;;;;;5096816;28;20244;-82
2021/09/29 01:47:00;;;;;;;18.37;12.03;;;13.10;99.90;;;;;;5096563;28;20196;-82
2021/09/29 01:49:31;;;;;;;15.77;11.30;;;13.10;99.90;;;;;;5096692;28;20179;-82
2021/09/29 01:51:57;;;;;;;16.17;10.93;;;13.10;99.90;;;;;;5098658;28;20148;-82
2021/09/29 01:54:30;;;;;;;14.13;11.33;;;13.10;99.90;;;;;;5096827;28;20184;-82
2021/09/29 01:56:56;;;;;;;14.00;9.97;;;13.20;99.90;;;;;;5097827;28;20206;-82
2021/09/29 01:59:23;;;;;;;17.00;10.70;;;13.10;99.90;;;;;;5096642;28;20172;-82
2021/09/29 02:01:52;;;;;;;14.13;10.33;;;13.10;99.90;;;;;;5097450;28;20168;-82
2021/09/29 02:04:19;;;;;;;14.10;9.80;;;13.10;99.90;;;;;;5095600;28;20732;-82
2021/09/29 02:06:50;;;;;;;12.33;9.63;;;13.10;99.90;;;;;;5095576;28;20245;-82
2021/09/29 02:09:17;;;;;;;11.63;9.67;;;13.20;99.90;;;;;;5095700;28;20172;-82
2021/09/29 02:11:43;;;;;;;14.20;10.73;;;13.20;99.90;;;;;;5096589;28;20180;-82
2021/09/29 02:14:09;;;;;;;12.87;10.23;;;13.20;99.90;;;;;;5096045;28;20221;-82
2021/09/29 02:16:35;;;;;;;12.83;9.70;;;13.20;99.90;;;;;;5094697;28;20673;-82
2021/09/29 02:19:01;;;;;;;14.63;9.60;;;13.20;99.90;;;;;;5094400;28;20184;-82
2021/09/29 02:21:27;;;;;;;17.30;9.87;;;13.20;99.90;;;;;;5094599;28;20174;-82
2021/09/29 02:23:52;;;;;;;11.57;9.07;;;13.20;99.90;;;;;;5095186;28;20180;-82
2021/09/29 02:26:18;;;;;;;12.10;8.57;;;13.20;99.90;;;;;;5098016;28;20259;-82
2021/09/29 02:28:44;;;;;;;11.63;9.63;;;13.20;99.90;;;;;;5096700;28;20200;-82
2021/09/29 02:31:10;;;;;;;13.23;9.80;;;13.20;99.90;;;;;;5098822;28;20176;-82
2021/09/29 02:33:35;;;;;;;11.87;9.47;;;13.20;99.90;;;;;;5096255;28;20176;-83
2021/09/29 02:36:01;;;;;;;14.43;9.20;;;13.20;99.90;;;;;;5098309;28;20195;-82
2021/09/29 02:38:27;;;;;;;11.63;9.07;;;13.20;99.90;;;;;;5097142;28;20265;-82
2021/09/29 02:40:52;;;;;;;11.60;9.50;;;13.30;99.90;;;;;;5096545;28;20179;-82
2021/09/29 02:43:18;;;;;;;14.17;9.90;;;13.20;99.90;;;;;;5096031;28;20689;-82
2021/09/29 02:45:45;;;;;;;12.20;9.13;;;13.20;99.90;;;;;;5096465;28;20176;-82
2021/09/29 02:48:12;;;;;;;11.50;8.73;;;13.20;99.90;;;;;;5097748;28;20192;-82
2021/09/29 02:50:39;;;;;;;11.90;9.07;;;13.20;99.90;;;;;;5096382;28;20536;-82
2021/09/29 02:53:04;;;;;;;12.20;9.80;;;13.20;99.90;;;;;;5097484;28;20699;-82
2021/09/29 02:55:30;;;;;;;13.37;9.53;;;13.20;99.90;;;;;;5095846;28;20176;-82
2021/09/29 02:57:55;;;;;;;12.67;9.57;;;13.20;99.90;;;;;;5098264;28;20556;-82
2021/09/29 03:00:21;;;;;;;12.50;9.30;;;13.20;99.90;;;;;;5100246;28;20172;-82
2021/09/29 03:02:47;;;;;;;12.33;9.77;;;13.20;99.90;;;;;;5100162;28;20174;-82
2021/09/29 03:05:13;;;;;;;12.60;9.17;;;13.20;99.90;;;;;;5101241;28;20226;-82
2021/09/29 03:07:38;;;;;;;13.27;9.80;;;13.20;99.90;;;;;;5101607;28;20192;-82
2021/09/29 03:10:05;;;;;;;12.30;9.23;;;13.10;99.90;;;;;;5100978;28;20176;-82
2021/09/29 03:12:31;;;;;;;14.17;9.87;;;13.10;99.90;;;;;;5100907;28;20624;-82
2021/09/29 03:14:56;;;;;;;14.07;9.40;;;13.20;99.90;;;;;;5102785;28;20206;-82
2021/09/29 03:17:22;;;;;;;13.37;9.57;;;13.20;99.90;;;;;;5104081;28;20568;-82
2021/09/29 03:19:48;;;;;;;12.90;8.97;;;13.10;99.90;;;;;;5106844;28;20207;-82
2021/09/29 03:22:14;;;;;;;11.80;9.03;;;13.10;99.90;;;;;;5111973;28;20164;-82
2021/09/29 03:24:40;;;;;;;12.67;9.77;;;13.10;99.90;;;;;;5111533;28;20168;-82
2021/09/29 03:27:06;;;;;;;12.40;9.20;;;13.10;99.90;;;;;;5104303;28;20199;-83
2021/09/29 03:29:32;;;;;;;12.30;8.93;;;13.10;99.90;;;;;;5100017;28;20180;-82
2021/09/29 03:31:58;;;;;;;10.87;8.47;;;13.10;99.90;;;;;;5101699;28;20179;-83
2021/09/29 03:34:24;;;;;;;14.80;10.17;;;13.10;99.90;;;;;;5100438;28;20221;-83
2021/09/29 03:36:50;;;;;;;13.33;10.17;;;13.10;99.90;;;;;;5100146;28;20212;-83
2021/09/29 03:39:15;;;;;;;15.40;9.50;;;13.10;99.90;;;;;;5100591;28;20630;-83
2021/09/29 03:41:41;;;;;;;11.40;8.80;;;13.10;99.90;;;;;;5101942;28;20252;-83
2021/09/29 03:44:07;;;;;;;10.90;7.60;;;13.00;99.90;;;;;;5100429;28;20225;-83
2021/09/29 03:46:33;;;;;;;13.33;7.30;;;13.00;99.90;;;;;;5100278;28;20191;-83
2021/09/29 03:48:59;;;;;;;11.00;6.87;;;13.00;99.90;;;;;;5100250;28;20305;-83
2021/09/29 03:51:24;;;;;;;11.83;7.33;;;12.90;99.90;;;;;;5099861;28;20183;-83
2021/09/29 03:53:50;;;;;;;9.13;6.77;;;13.00;99.90;;;;;;5101375;28;20176;-83
2021/09/29 03:56:16;;;;;;;8.07;5.93;;;13.00;99.90;;;;;;5102369;28;20207;-83
2021/09/29 03:58:42;;;;;;;6.17;5.27;;;12.90;99.90;;;;;;5100313;28;20195;-83
2021/09/29 04:01:07;;;;;;;5.83;5.00;;;12.90;99.90;;;;;;5101614;28;20251;-83
2021/09/29 04:03:33;;;;;;;6.20;4.70;;;12.90;99.90;;;;;;5103143;28;20171;-83
2021/09/29 04:05:59;;;;;;;6.53;5.10;;;12.90;99.90;;;;;;5102882;28;20211;-83
2021/09/29 04:08:25;;;;;;;7.27;4.77;;;12.90;99.90;;;;;;5100966;28;20723;-83
2021/09/29 04:10:50;;;;;;;4.93;4.20;;;12.90;99.90;;;;;;5101530;28;20172;-83
2021/09/29 04:13:16;;;;;;;6.57;3.97;;;12.90;99.90;;;;;;5100865;28;20180;-83
2021/09/29 04:15:42;;;;;;;5.80;4.60;;;12.90;99.90;;;;;;5101852;28;20260;-83
2021/09/29 04:18:07;;;;;;;7.20;4.17;;;12.90;99.90;;;;;;5100578;28;20195;-83
2021/09/29 04:20:33;;;;;;;6.90;4.20;;;12.90;99.90;;;;;;5102245;28;20176;-83
2021/09/29 04:22:59;;;;;;;6.67;4.10;;;12.90;99.90;;;;;;5100299;28;20175;-83
2021/09/29 04:25:25;;;;;;;6.53;4.30;;;12.90;99.90;;;;;;5100348;28;20207;-83
2021/09/29 04:27:51;;;;;;;6.37;4.03;;;12.90;99.90;;;;;;5101253;28;20202;-83
2021/09/29 04:30:17;;;;;;;5.07;3.87;;;12.90;99.90;;;;;;5100965;28;20600;-84
2021/09/29 04:32:43;;;;;;;6.80;4.10;;;12.90;99.90;;;;;;5104241;28;20183;-84
2021/09/29 04:35:10;;;;;;;5.73;4.73;;;12.90;99.90;;;;;;5102198;28;20630;-84
2021/09/29 04:37:36;;;;;;;6.10;4.37;;;12.80;99.90;;;;;;5103229;28;20290;-84
2021/09/29 04:40:03;;;;;;;5.30;4.40;;;12.80;99.90;;;;;;5102909;28;20253;-85
2021/09/29 04:42:28;;;;;;;6.80;5.53;;;12.80;99.90;;;;;;5104753;28;20175;-84
2021/09/29 04:44:54;;;;;;;6.90;4.67;;;12.70;99.90;;;;;;5103867;28;20187;-84
2021/09/29 04:47:20;;;;;;;9.73;5.53;;;12.70;99.90;;;;;;5103037;28;20226;-84
2021/09/29 04:49:45;;;;;;;7.67;5.53;;;12.70;99.90;;;;;;5103049;28;20178;-85
2021/09/29 04:52:11;;;;;;;8.17;6.00;;;12.60;99.90;;;;;;5104427;28;20172;-84
2021/09/29 04:54:36;;;;;;;8.87;5.27;;;12.60;99.90;;;;;;5104400;28;20183;-84
2021/09/29 04:57:02;;;;;;;10.77;6.10;;;12.60;99.90;;;;;;5102633;28;20287;-86
2021/09/29 04:59:28;;;;;;;9.53;6.73;;;12.50;99.90;;;;;;5103062;28;20176;-84
2021/09/29 05:01:54;;;;;;;10.83;7.60;;;12.50;99.90;;;;;;5102174;28;20634;-85
2021/09/29 05:04:24;;;;;;;9.47;7.27;;;12.50;99.90;;;;;;5102933;28;20164;-85
2021/09/29 05:06:50;;;;;;;10.53;7.50;;;12.50;99.90;;;;;;5101402;28;20637;-84
2021/09/29 05:09:16;;;;;;;13.00;8.20;;;12.50;99.90;;;;;;5100760;28;20182;-84
2021/09/29 05:11:50;;;;;;;11.00;7.17;;;12.50;99.90;;;;;;5101008;28;20244;-84
2021/09/29 05:14:16;;;;;;;10.17;6.97;;;12.50;99.90;;;;;;5100676;28;20659;-84
2021/09/29 05:16:42;;;;;;;9.53;6.67;;;12.40;99.90;;;;;;5095690;28;20223;-84
2021/09/29 05:19:07;;;;;;;11.20;6.40;;;12.40;99.90;;;;;;5101789;28;20164;-84
2021/09/29 05:21:35;;;;;;;10.83;7.27;;;12.40;99.90;;;;;;5099964;28;20179;-84
2021/09/29 05:24:01;;;;;;;8.90;6.50;;;12.40;99.90;;;;;;5102345;28;20169;-84
2021/09/29 05:26:27;;;;;;;8.70;5.63;;;12.40;99.90;;;;;;5102980;28;20283;-84
2021/09/29 05:28:56;;;;;;;7.47;5.33;;;12.40;99.90;;;;;;5106633;28;20196;-83
2021/09/29 05:31:21;;;;;;;4.77;4.23;;;12.40;99.90;;;;;;5099297;28;20244;-84
2021/09/29 05:33:47;;;;;;;4.67;3.60;;;12.40;99.90;;;;;;5100010;28;20607;-84
2021/09/29 05:36:13;;;;;;;6.50;3.77;;;12.30;99.90;;;;;;5099259;28;20663;-82
2021/09/29 05:38:39;;;;;;;5.27;4.20;;;12.40;99.90;;;;;;5100047;28;20656;-83
2021/09/29 05:41:05;;;;;;;5.27;3.70;;;12.30;99.90;;;;;;5099739;28;20175;-82
2021/09/29 05:43:30;;;;;;;6.83;3.60;;;12.30;99.90;;;;;;5101411;28;20183;-82
2021/09/29 05:45:58;;;;;;;5.87;3.43;;;12.30;99.90;;;;;;5098612;28;20175;-82
2021/09/29 05:48:24;;;;;;;6.07;4.00;;;12.30;99.90;;;;;;5100695;28;20286;-82
2021/09/29 05:50:49;;;;;;;4.80;3.37;;;12.30;99.90;;;;;;5101404;28;20209;-82
2021/09/29 05:53:15;;;;;;;6.23;3.60;;;12.30;99.90;;;;;;5102102;28;20221;-84
2021/09/29 05:55:41;;;;;;;4.80;3.33;;;12.20;99.90;;;;;;5103826;28;20182;-83
2021/09/29 05:58:07;;;;;;;3.83;2.80;;;12.30;99.90;;;;;;5101708;28;20196;-83
2021/09/29 06:00:33;;;;;;;9.23;3.37;;;12.20;99.90;;;;;;5102363;28;20246;-83
2021/09/29 06:02:58;;;;;;;3.73;2.70;;;12.30;99.90;;;;;;5103298;28;20296;-84
2021/09/29 06:05:24;;;;;;;5.47;2.87;;;12.30;99.90;;;;;;5102327;28;20656;-83
2021/09/29 06:07:50;;;;;;;3.83;2.17;;;12.30;99.90;;;;;;5097030;28;20691;-83
2021/09/29 06:10:16;;;;;;;5.93;2.30;;;12.20;99.90;;;;;;5097358;28;20172;-83
2021/09/29 06:12:42;;;;;;;2.27;1.83;;;12.20;99.90;;;;;;5099220;28;20652;-84
2021/09/29 06:15:08;;;;;;;4.97;2.03;;;12.20;99.90;;;;;;5100093;28;20191;-83
2021/09/29 06:17:42;;;;;;;3.87;1.90;;;12.20;99.90;;;;;;5100886;28;20212;-83
2021/09/29 06:20:08;;;;;;;2.20;2.00;;;12.30;99.90;;;;;;5102119;28;20263;-83
2021/09/29 06:22:35;;;;;;;2.27;1.90;;;12.30;99.90;;;;;;5104330;28;20613;-83
2021/09/29 06:25:01;;;;;;;4.00;1.90;;;12.30;99.90;;;;;;5102838;28;20176;-83
2021/09/29 06:27:26;;;;;;;2.63;1.90;;;12.30;99.90;;;;;;5103659;28;20260;-83
2021/09/29 06:29:52;;;;;;;3.30;1.60;;;12.40;99.90;;;;;;5103130;28;20183;-83
2021/09/29 06:32:18;;;;;;;4.07;2.03;;;12.30;99.90;;;;;;5104852;28;20174;-84
2021/09/29 06:34:44;;;;;;;3.90;2.20;;;12.40;99.90;;;;;;5106852;28;20270;-84
2021/09/29 06:37:10;;;;;;;2.37;1.70;;;12.40;99.90;;;;;;5108014;28;20275;-84
2021/09/29 06:39:35;;;;;;;3.57;1.87;;;12.40;99.90;;;;;;5106788;28;20540;-84
2021/09/29 06:42:01;;;;;;;8.83;2.10;;;12.30;99.90;;;;;;5104953;28;20175;-83
2021/09/29 06:44:28;;;;;;;3.20;1.60;;;12.40;99.90;;;;;;5107639;28;20171;-83
2021/09/29 06:46:54;;;;;;;5.10;1.90;;;12.40;99.90;;;;;;5107832;28;20172;-83
2021/09/29 06:49:20;;;;;;;2.23;1.77;;;12.40;99.90;;;;;;5107278;28;20180;-84
2021/09/29 06:51:46;;;;;;;8.07;2.00;;;12.50;99.90;;;;;;5112838;28;20203;-83
2021/09/29 06:54:12;;;;;;;3.00;1.50;;;12.50;99.90;;;;;;5110947;28;20175;-83
2021/09/29 06:56:38;;;;;;;5.47;1.93;;;12.60;99.90;;;;;;5108958;28;20207;-83
2021/09/29 06:59:03;;;;;;;3.27;1.60;;;12.70;99.90;;;;;;5105787;28;20261;-83
2021/09/29 07:01:29;;;;;;;1.83;1.50;;;12.70;99.90;;;;;;5106697;28;20175;-83
2021/09/29 07:03:55;;;;;;;3.63;1.70;;;12.80;99.90;;;;;;5106107;28;20184;-83
2021/09/29 07:06:20;;;;;;;4.70;1.77;;;12.80;99.90;;;;;;5105576;28;20176;-83
2021/09/29 07:08:49;;;;;;;2.97;1.60;;;12.80;99.90;;;;;;5107278;28;20203;-83
2021/09/29 07:11:17;;;;;;;5.67;1.60;;;12.80;99.90;;;;;;5105737;28;20233;-83
2021/09/29 07:13:45;;;;;;;2.03;1.20;;;12.70;99.90;;;;;;5106260;28;20188;-83
2021/09/29 07:16:11;;;;;;;4.43;1.30;;;12.70;99.90;;;;;;5106214;28;20248;-82
2021/09/29 07:18:38;;;;;;;1.63;1.00;;;12.80;99.90;;;;;;5106826;28;20196;-83
2021/09/29 07:21:05;;;;;;;4.50;1.47;;;12.70;99.90;;;;;;5108743;28;20169;-83
2021/09/29 07:23:30;;;;;;;3.90;1.43;;;12.80;99.90;;;;;;5107861;28;20176;-83
2021/09/29 07:25:56;;;;;;;3.10;1.40;;;12.80;99.90;;;;;;5110357;28;20183;-83
2021/09/29 07:28:22;;;;;;;3.57;1.10;;;12.80;99.90;;;;;;5109778;28;20345;-83
2021/09/29 07:30:48;;;;;;;1.87;1.00;;;12.80;99.90;;;;;;5111819;28;20176;-83
2021/09/29 07:33:15;;;;;;;2.13;1.23;;;12.80;99.90;;;;;;5103487;28;20697;-83
2021/09/29 07:35:41;;;;;;;3.93;1.20;;;12.80;99.90;;;;;;5103144;28;20176;-83
2021/09/29 07:38:07;;;;;;;3.90;1.33;;;12.90;99.90;;;;;;5103824;28;20203;-83
2021/09/29 07:40:34;;;;;;;3.53;1.10;;;13.10;99.90;;;;;;5103589;28;20207;-83
2021/09/29 07:43:02;;;;;;;3.63;1.20;;;13.30;99.90;;;;;;5102234;28;20617;-83
2021/09/29 07:45:28;;;;;;;6.63;1.20;;;13.50;99.90;;;;;;5098621;28;20225;-83
2021/09/29 07:47:54;;;;;;;3.10;1.23;;;13.60;99.90;;;;;;5100578;28;20204;-82
2021/09/29 07:50:21;;;;;;;4.00;1.30;;;13.60;99.90;;;;;;5098164;28;20262;-82
2021/09/29 07:52:47;;;;;;;3.77;0.87;;;13.90;99.90;;;;;;5096340;28;20180;-82
2021/09/29 07:55:13;;;;;;;1.87;1.07;;;14.00;99.90;;;;;;5095784;28;20218;-82
2021/09/29 07:57:40;;;;;;;3.00;1.23;;;14.00;99.90;;;;;;5101181;28;20216;-83
2021/09/29 08:00:07;;;;;;;2.83;0.87;;;13.90;99.90;;;;;;5102334;28;20184;-83
2021/09/29 08:02:33;;;;;;;3.67;1.00;;;13.80;99.90;;;;;;5102186;28;20181;-83
2021/09/29 08:05:02;;;;;;;1.23;0.80;;;13.70;99.90;;;;;;5103951;28;20621;-83
2021/09/29 08:07:28;;;;;;;2.07;1.00;;;13.80;99.90;;;;;;5102875;28;20653;-83
2021/09/29 08:09:54;;;;;;;3.27;1.10;;;13.80;99.90;;;;;;5104306;28;20176;-83
2021/09/29 08:12:20;;;;;;;3.57;1.00;;;13.80;99.90;;;;;;5104694;28;20183;-83
2021/09/29 08:14:45;;;;;;;1.40;1.00;;;13.90;99.90;;;;;;5097938;28;20194;-82
2021/09/29 08:17:11;;;;;;;2.97;1.20;;;13.90;99.90;;;;;;5098682;28;20216;-83
2021/09/29 08:19:37;;;;;;;3.07;1.00;;;14.00;99.90;;;;;;5103504;28;20181;-83
2021/09/29 08:22:06;;;;;;;2.97;1.20;;;14.00;99.90;;;;;;5104429;28;20536;-83
2021/09/29 08:24:57;;;;;;;2.43;0.77;;;14.10;99.90;;;;;;5103830;28;20199;-83
2021/09/29 08:27:36;;;;;;;1.33;0.87;;;14.20;99.90;;;;;;5104415;28;20196;-83
2021/09/29 08:30:12;;;;;;;2.33;1.20;;;14.40;99.90;;;;;;5103752;28;20184;-83
2021/09/29 08:32:55;;;;;;;2.00;1.13;;;14.40;99.90;;;;;;5104107;28;20176;-83
2021/09/29 08:35:28;;;;;;;4.27;1.40;;;14.60;99.90;;;;;;5106663;28;20233;-83
2021/09/29 08:46:00;;;;;;;3.73;1.07;;;17.30;99.90;;;;;;5104825;28;20187;-83
2021/09/29 09:15:51;;;;;;;3.17;0.87;;;15.80;99.90;;;;;;5104105;28;20226;-83
2021/09/29 09:18:16;;;;;;;2.77;1.10;;;16.00;99.90;;;;;;5102912;28;20287;-83
2021/09/29 09:20:49;;;;;;;3.33;1.13;;;16.10;99.90;;;;;;5102883;28;20637;-83
2021/09/29 09:23:14;;;;;;;2.10;1.17;;;16.30;99.90;;;;;;5104096;28;20159;-83
2021/09/29 09:25:43;;;;;;;2.70;1.13;;;16.50;99.90;;;;;;5102779;28;20196;-83
2021/09/29 09:28:21;;;;;;;2.43;1.00;;;16.40;99.90;;;;;;5104067;28;20209;-83
2021/09/29 09:30:46;;;;;;;3.37;1.40;;;16.20;99.90;;;;;;5103895;28;20176;-83
2021/09/29 09:33:22;;;;;;;2.30;1.10;;;16.00;99.90;;;;;;5105792;28;20260;-83
2021/09/29 09:35:48;;;;;;;1.83;1.20;;;16.00;99.90;;;;;;5106821;28;20153;-83
2021/09/29 09:38:24;;;;;;;5.17;1.83;;;15.80;99.90;;;;;;5102722;28;20206;-83
2021/09/29 09:40:58;;;;;;;4.27;1.70;;;15.50;99.90;;;;;;5103959;28;20233;-82
2021/09/29 09:43:27;;;;;;;4.03;1.40;;;15.20;99.90;;;;;;5101682;28;20178;-83
2021/09/29 09:45:53;;;;;;;2.90;1.30;;;15.00;99.90;;;;;;5104025;28;20208;-83
2021/09/29 09:48:25;;;;;;;2.50;1.63;;;15.00;99.90;;;;;;5103008;28;20196;-83
2021/09/29 09:51:04;;;;;;;1.67;1.37;;;15.00;99.90;;;;;;5102533;28;20233;-82
2021/09/29 09:53:31;;;;;;;4.57;1.70;;;15.10;99.90;;;;;;5103148;28;20178;-83
2021/09/29 09:55:57;;;;;;;3.80;1.50;;;15.20;99.90;;;;;;5104756;28;20292;-82
2021/09/29 09:58:23;;;;;;;2.27;1.30;;;15.30;99.90;;;;;;5107192;28;20188;-82
2021/09/29 10:00:57;;;;;;;2.63;1.47;;;15.90;99.90;;;;;;5104703;28;20194;-83
2021/09/29 10:03:27;;;;;;;2.80;1.37;;;17.00;99.90;;;;;;5100266;28;20164;-82
2021/09/29 10:05:53;;;;;;;5.27;1.80;;;17.80;99.90;;;;;;5100228;28;20630;-83
2021/09/29 10:08:27;;;;;;;3.90;1.40;;;18.50;99.90;;;;;;5100769;28;20189;-81
2021/09/29 10:11:04;;;;;;;1.77;1.27;;;19.10;99.90;;;;;;5101983;28;20193;-80
2021/09/29 10:13:53;;;;;;;2.90;1.30;;;19.50;99.90;;;;;;5102998;28;20207;-81
2021/09/29 10:27:58;;;;;;;2.60;1.20;;;18.20;99.90;;;;;;5100996;28;20262;-82
2021/09/29 10:30:33;;;;;;;2.57;1.50;;;17.60;99.90;;;;;;5099048;28;20641;-82
2021/09/29 10:33:04;;;;;;;3.10;1.43;;;17.20;99.90;;;;;;5095585;28;20243;-82
2021/09/29 10:40:55;;;;;;;2.37;1.37;;;16.50;99.90;;;;;;5100832;28;20162;-83
2021/09/29 10:44:03;;;;;;;4.30;1.57;;;16.50;99.90;;;;;;5100298;28;20166;-83
2021/09/29 10:46:39;;;;;;;1.83;1.50;;;16.80;99.90;;;;;;5100095;28;20208;-83
2021/09/29 10:50:04;;;;;;;3.50;1.73;;;17.00;99.90;;;;;;5099351;28;20169;-82
2021/09/29 11:03:32;;;;;;;2.33;1.20;;;16.60;99.90;;;;;;5101496;28;20184;-83
2021/09/29 11:30:49;;;;;;;2.47;1.33;;;18.40;99.90;;;;;;5108637;28;20187;-83
2021/09/29 11:33:52;;;;;;;2.47;1.27;;;18.60;99.90;;;;;;5106949;28;20181;-83
2021/09/29 11:36:30;;;;;;;3.27;1.17;;;19.60;99.90;;;;;;5106088;28;20228;-82
2021/09/29 12:12:21;;;;;;;2.10;1.07;;;17.80;99.90;;;;;;5103256;28;20687;-84
2021/09/29 12:14:49;;;;;;;2.07;1.20;;;17.70;99.90;;;;;;5101698;28;20589;-82
2021/09/29 12:17:26;;;;;;;2.27;1.03;;;17.70;99.90;;;;;;5101668;28;20698;-81
2021/09/29 12:20:10;;;;;;;4.87;1.10;;;17.70;99.90;;;;;;5101047;28;20169;-81
2021/09/29 12:22:55;;;;;;;2.37;1.43;;;17.60;99.90;;;;;;5100031;28;20174;-81
2021/09/29 12:30:44;;;;;;;3.43;1.00;;;18.70;99.90;;;;;;5100995;28;20193;-81
2021/09/29 12:33:32;;;;;;;0.97;0.87;;;19.50;99.90;;;;;;5100951;28;20172;-82
2021/09/29 12:35:55;;;;;;;1.00;0.90;;;21.30;99.90;;;;;;5100197;28;20204;-82
2021/09/29 12:38:34;;;;;;;1.17;0.80;;;22.80;99.90;;;;;;5100708;28;20600;-81
2021/09/29 12:40:59;;;;;;;2.37;0.80;;;22.10;99.50;;;;;;5099869;28;20198;-82
2021/09/29 12:43:25;;;;;;;1.13;0.87;;;22.20;98.20;;;;;;5100401;28;20176;-82
2021/09/29 12:45:51;;;;;;;2.03;1.00;;;21.90;99.90;;;;;;5099674;28;20172;-83
2021/09/29 12:48:24;;;;;;;2.93;0.93;;;22.10;99.90;;;;;;5099619;28;20200;-80
2021/09/29 12:50:58;;;;;;;1.50;0.90;;;23.30;98.40;;;;;;5102922;28;20638;-80
2021/09/29 12:55:59;;;;;;;1.93;0.90;;;22.50;98.60;;;;;;5101527;28;20172;-80
2021/09/29 12:58:27;;;;;;;1.73;0.97;;;23.50;99.90;;;;;;5098643;28;20186;-81
2021/09/29 13:00:53;;;;;;;3.30;1.10;;;24.70;96.00;;;;;;5096908;28;20232;-80
2021/09/29 13:03:19;;;;;;;2.60;0.90;;;24.40;94.90;;;;;;5095942;28;20175;-81
2021/09/29 13:05:45;;;;;;;2.20;0.90;;;22.70;93.70;;;;;;5094407;28;20176;-80
2021/09/29 13:08:10;;;;;;;2.83;0.90;;;21.80;98.40;;;;;;5094181;28;20649;-80
2021/09/29 13:10:37;;;;;;;2.53;0.80;;;20.80;97.20;;;;;;5096696;28;20176;-81
2021/09/29 13:13:02;;;;;;;1.10;1.00;;;20.10;98.80;;;;;;5096791;28;20660;-82
2021/09/29 13:15:28;;;;;;;4.73;1.00;;;19.50;99.70;;;;;;5096850;28;20188;-82
2021/09/29 13:17:56;;;;;;;2.90;1.13;;;19.00;99.90;;;;;;5097490;28;20255;-82
2021/09/29 13:20:26;;;;;;;2.10;1.00;;;20.00;99.90;;;;;;5097484;28;20198;-82
2021/09/29 13:23:22;;;;;;;5.53;0.77;;;22.50;97.90;;;;;;5099157;28;20652;-82
2021/09/29 13:36:39;;;;;;;3.77;1.07;;;20.50;98.50;;;;;;5100809;28;20234;-82
2021/09/29 13:39:15;;;;;;;1.03;0.83;;;21.10;98.50;;;;;;5100734;28;20160;-81
2021/09/29 13:41:42;;;;;;;2.00;1.20;;;21.10;98.10;;;;;;5097566;28;20172;-82
2021/09/29 13:44:10;;;;;;;4.33;0.97;;;21.10;99.90;;;;;;5097812;28;20192;-82
2021/09/29 13:46:36;;;;;;;3.80;1.20;;;22.50;98.40;;;;;;5097379;28;20179;-82
2021/09/29 13:49:03;;;;;;;1.83;0.97;;;23.40;95.40;;;;;;5096312;28;20196;-82
2021/09/29 13:51:30;;;;;;;1.77;0.80;;;24.00;93.80;;;;;;5096907;28;20181;-81
2021/09/29 13:53:56;;;;;;;2.00;0.83;;;24.10;93.90;;;;;;5095138;28;20176;-82
2021/09/29 13:56:28;;;;;;;1.57;0.80;;;24.90;93.20;;;;;;5096222;28;20203;-82
2021/09/29 13:59:07;;;;;;;1.37;0.90;;;25.50;92.80;;;;;;5096751;28;20279;-82
2021/09/29 14:34:17;;;;;;;1.70;0.90;;;20.70;91.90;;;;;;5091199;28;20177;-82
2021/09/29 14:36:43;;;;;;;0.87;0.80;;;19.60;94.10;;;;;;5099736;28;20567;-82
2021/09/29 14:39:08;;;;;;;3.60;0.90;;;19.50;94.50;;;;;;5098936;28;20168;-81
2021/09/29 14:41:34;;;;;;;2.33;1.00;;;19.40;95.10;;;;;;5099354;28;20201;-81
2021/09/29 14:44:00;;;;;;;2.20;0.70;;;19.00;96.50;;;;;;5097483;28;20193;-81
2021/09/29 14:46:26;;;;;;;2.37;1.00;;;18.90;96.80;;;;;;5097361;28;20180;-81
2021/09/29 14:48:51;;;;;;;1.00;0.90;;;18.70;96.70;;;;;;5098583;28;20202;-81
2021/09/29 14:51:17;;;;;;;1.00;0.90;;;18.60;98.00;;;;;;5097290;28;20181;-81
2021/09/29 14:53:48;;;;;;;1.70;0.90;;;18.50;98.20;;;;;;5098760;28;20545;-81
2021/09/29 14:56:16;;;;;;;1.20;0.90;;;18.20;97.70;;;;;;5102664;28;20201;-81
2021/09/29 14:58:42;;;;;;;2.10;1.13;;;17.90;98.10;;;;;;5101304;28;20204;-81
2021/09/29 15:01:07;;;;;;;2.53;0.73;;;17.70;99.20;;;;;;5101618;28;20242;-81
2021/09/29 15:03:34;;;;;;;1.10;0.60;;;17.60;99.90;;;;;;5102201;28;20182;-81
2021/09/29 15:05:59;;;;;;;1.20;0.80;;;17.50;99.90;;;;;;5102949;28;20189;-81
2021/09/29 15:08:25;;;;;;;1.00;0.90;;;17.40;99.90;;;;;;5102757;28;20551;-81
2021/09/29 15:10:51;;;;;;;1.50;0.90;;;17.40;99.90;;;;;;5103373;28;20200;-81
2021/09/29 15:13:19;;;;;;;3.23;1.00;;;17.20;99.90;;;;;;5102940;28;20176;-81
2021/09/29 15:15:57;;;;;;;1.07;0.87;;;17.20;99.90;;;;;;5112657;28;20193;-81
2021/09/29 15:22:05;;;;;;;3.40;0.80;;;17.10;99.90;;;;;;5066536;28;20197;-81
2021/09/29 15:48:26;;;;;;;1.43;0.80;;;16.50;99.90;;;;;;5103204;28;20199;-81
2021/09/29 15:51:02;;;;;;;2.17;0.80;;;16.60;99.90;;;;;;5101630;28;20199;-81
2021/09/29 15:56:15;;;;;;;0.93;0.80;;;16.60;99.90;;;;;;5102958;28;20194;-81
2021/09/29 15:59:08;;;;;;;1.13;0.83;;;16.70;99.90;;;;;;5103985;28;20274;-81
2021/09/29 16:01:50;;;;;;;1.43;0.80;;;16.60;99.90;;;;;;5101721;28;20172;-81
2021/09/29 16:04:28;;;;;;;1.90;0.93;;;16.60;99.90;;;;;;5100860;28;20294;-82
2021/09/29 16:12:35;;;;;;;1.00;0.80;;;16.30;99.90;;;;;;5103656;28;20167;-82
2021/09/29 16:23:38;;;;;;;2.73;0.90;;;15.90;99.90;;;;;;5101373;28;20163;-82
2021/09/29 16:31:35;;;;;;;4.20;2.47;;;15.80;99.90;;;;;;5102275;28;20628;-81
2021/09/29 16:34:21;;;;;;;3.53;1.53;;;15.70;99.90;;;;;;5102370;28;20171;-81